X  Lukk Metar værinformasjon fra luftfart     ENRY Moss Airport, Rygge
Temperatur
48°F Temperatur
27°F Duggpunkt
43% Luftfuktighet



Vind
9 MPT
14 KM/T
4 M/S
8 KNP



40°
Nåværende forhold

Klart Klart
Trykk 1024.92 (hPa) - 30.27 (inHg)
Sikt 0 (mil) - 0 (km)
Flyplass
Flyplass-kode ENRY

Plassering: Moss Airport, Rygge
Avstand: 12 (mi)

Metar:
ENRY 160520Z AUTO 04008KT 010V080 9999NDV NCD 09/M03 Q1025

Tid: 16-05-2022 07:20 CEST